sensor_id;sensor_type;location;lat;lon;timestamp;temperature;humidity
19180;DHT22;9722;48.754;8.868;2023-05-10T00:00:18;14.10;99.90
19180;DHT22;9722;48.754;8.868;2023-05-10T00:03:38;14.00;99.90
19180;DHT22;9722;48.754;8.868;2023-05-10T00:07:00;13.90;99.90
19180;DHT22;9722;48.754;8.868;2023-05-10T00:10:20;13.90;99.90
19180;DHT22;9722;48.754;8.868;2023-05-10T00:13:41;13.90;99.90
19180;DHT22;9722;48.754;8.868;2023-05-10T00:17:01;13.80;99.90
19180;DHT22;9722;48.754;8.868;2023-05-10T00:20:22;13.70;99.90
19180;DHT22;9722;48.754;8.868;2023-05-10T00:23:42;13.70;99.90
19180;DHT22;9722;48.754;8.868;2023-05-10T00:27:03;13.60;99.90
19180;DHT22;9722;48.754;8.868;2023-05-10T00:30:24;13.60;99.90
19180;DHT22;9722;48.754;8.868;2023-05-10T00:33:44;13.60;99.90
19180;DHT22;9722;48.754;8.868;2023-05-10T00:37:05;13.50;99.90
19180;DHT22;9722;48.754;8.868;2023-05-10T00:40:26;13.50;99.90
19180;DHT22;9722;48.754;8.868;2023-05-10T00:43:46;13.50;99.90
19180;DHT22;9722;48.754;8.868;2023-05-10T00:47:07;13.40;99.90
19180;DHT22;9722;48.754;8.868;2023-05-10T00:50:28;13.40;99.90
19180;DHT22;9722;48.754;8.868;2023-05-10T00:53:49;13.40;99.90
19180;DHT22;9722;48.754;8.868;2023-05-10T00:57:11;13.40;99.90
19180;DHT22;9722;48.754;8.868;2023-05-10T01:00:33;13.40;99.90
19180;DHT22;9722;48.754;8.868;2023-05-10T01:03:54;13.40;99.90
19180;DHT22;9722;48.754;8.868;2023-05-10T01:07:15;13.40;99.90
19180;DHT22;9722;48.754;8.868;2023-05-10T01:10:36;13.40;99.90
19180;DHT22;9722;48.754;8.868;2023-05-10T01:13:57;13.50;99.90
19180;DHT22;9722;48.754;8.868;2023-05-10T01:17:19;13.40;99.90
19180;DHT22;9722;48.754;8.868;2023-05-10T01:20:43;13.40;99.90
19180;DHT22;9722;48.754;8.868;2023-05-10T01:24:33;13.40;99.90
19180;DHT22;9722;48.754;8.868;2023-05-10T01:39:21;13.30;99.90
19180;DHT22;9722;48.754;8.868;2023-05-10T01:42:50;13.30;99.90
19180;DHT22;9722;48.754;8.868;2023-05-10T01:46:17;13.20;99.90
19180;DHT22;9722;48.754;8.868;2023-05-10T01:49:47;13.20;99.90
19180;DHT22;9722;48.754;8.868;2023-05-10T01:53:10;13.20;99.90
19180;DHT22;9722;48.754;8.868;2023-05-10T01:56:33;13.20;99.90
19180;DHT22;9722;48.754;8.868;2023-05-10T01:59:55;13.20;99.90
19180;DHT22;9722;48.754;8.868;2023-05-10T02:03:18;13.20;99.90
19180;DHT22;9722;48.754;8.868;2023-05-10T02:06:41;13.20;99.90
19180;DHT22;9722;48.754;8.868;2023-05-10T02:10:04;13.20;99.90
19180;DHT22;9722;48.754;8.868;2023-05-10T02:13:27;13.10;99.90
19180;DHT22;9722;48.754;8.868;2023-05-10T02:16:50;13.00;99.90
19180;DHT22;9722;48.754;8.868;2023-05-10T02:20:12;12.90;99.90
19180;DHT22;9722;48.754;8.868;2023-05-10T02:23:34;12.80;99.90
19180;DHT22;9722;48.754;8.868;2023-05-10T02:26:56;12.70;99.90
19180;DHT22;9722;48.754;8.868;2023-05-10T02:30:18;12.70;99.90
19180;DHT22;9722;48.754;8.868;2023-05-10T02:33:40;12.60;99.90
19180;DHT22;9722;48.754;8.868;2023-05-10T02:37:02;12.60;99.90
19180;DHT22;9722;48.754;8.868;2023-05-10T02:40:23;12.60;99.90
19180;DHT22;9722;48.754;8.868;2023-05-10T02:43:45;12.70;99.90
19180;DHT22;9722;48.754;8.868;2023-05-10T02:47:06;12.70;99.90
19180;DHT22;9722;48.754;8.868;2023-05-10T02:50:28;12.80;99.90
19180;DHT22;9722;48.754;8.868;2023-05-10T02:53:50;12.80;99.90
19180;DHT22;9722;48.754;8.868;2023-05-10T02:57:17;12.90;99.90
19180;DHT22;9722;48.754;8.868;2023-05-10T03:00:41;12.90;99.90
19180;DHT22;9722;48.754;8.868;2023-05-10T03:04:02;12.90;99.90
19180;DHT22;9722;48.754;8.868;2023-05-10T03:07:23;12.90;99.90
19180;DHT22;9722;48.754;8.868;2023-05-10T03:11:09;12.90;99.90
19180;DHT22;9722;48.754;8.868;2023-05-10T03:18:27;12.80;99.90
19180;DHT22;9722;48.754;8.868;2023-05-10T03:21:51;12.80;99.90
19180;DHT22;9722;48.754;8.868;2023-05-10T03:25:12;12.80;99.90
19180;DHT22;9722;48.754;8.868;2023-05-10T03:28:36;12.80;99.90
19180;DHT22;9722;48.754;8.868;2023-05-10T03:32:00;12.80;99.90
19180;DHT22;9722;48.754;8.868;2023-05-10T03:35:21;12.80;99.90
19180;DHT22;9722;48.754;8.868;2023-05-10T03:38:41;12.80;99.90
19180;DHT22;9722;48.754;8.868;2023-05-10T03:42:02;12.80;99.90
19180;DHT22;9722;48.754;8.868;2023-05-10T03:45:22;12.80;99.90
19180;DHT22;9722;48.754;8.868;2023-05-10T03:48:43;12.80;99.90
19180;DHT22;9722;48.754;8.868;2023-05-10T03:52:04;12.80;99.90
19180;DHT22;9722;48.754;8.868;2023-05-10T03:55:25;12.80;99.90
19180;DHT22;9722;48.754;8.868;2023-05-10T03:58:46;12.80;99.90
19180;DHT22;9722;48.754;8.868;2023-05-10T04:02:06;12.80;99.90
19180;DHT22;9722;48.754;8.868;2023-05-10T04:05:27;12.80;99.90
19180;DHT22;9722;48.754;8.868;2023-05-10T04:08:47;12.80;99.90
19180;DHT22;9722;48.754;8.868;2023-05-10T04:12:08;12.80;99.90
19180;DHT22;9722;48.754;8.868;2023-05-10T04:15:28;12.80;99.90
19180;DHT22;9722;48.754;8.868;2023-05-10T04:18:49;12.80;99.90
19180;DHT22;9722;48.754;8.868;2023-05-10T04:22:09;12.80;99.90
19180;DHT22;9722;48.754;8.868;2023-05-10T04:25:30;12.90;99.90
19180;DHT22;9722;48.754;8.868;2023-05-10T04:28:50;12.90;99.90
19180;DHT22;9722;48.754;8.868;2023-05-10T04:32:11;12.90;99.90
19180;DHT22;9722;48.754;8.868;2023-05-10T04:35:31;12.90;99.90
19180;DHT22;9722;48.754;8.868;2023-05-10T04:38:52;12.90;99.90
19180;DHT22;9722;48.754;8.868;2023-05-10T04:42:13;12.90;99.90
19180;DHT22;9722;48.754;8.868;2023-05-10T04:45:35;12.90;99.90
19180;DHT22;9722;48.754;8.868;2023-05-10T04:48:55;12.90;99.90
19180;DHT22;9722;48.754;8.868;2023-05-10T04:52:16;13.00;99.90
19180;DHT22;9722;48.754;8.868;2023-05-10T04:55:38;13.00;99.90
19180;DHT22;9722;48.754;8.868;2023-05-10T04:58:58;12.90;99.90
19180;DHT22;9722;48.754;8.868;2023-05-10T05:02:19;13.00;99.90
19180;DHT22;9722;48.754;8.868;2023-05-10T05:05:39;13.00;99.90
19180;DHT22;9722;48.754;8.868;2023-05-10T05:09:00;13.10;99.90
19180;DHT22;9722;48.754;8.868;2023-05-10T05:12:20;13.10;99.90
19180;DHT22;9722;48.754;8.868;2023-05-10T05:15:41;13.10;99.90
19180;DHT22;9722;48.754;8.868;2023-05-10T05:19:01;13.10;99.90
19180;DHT22;9722;48.754;8.868;2023-05-10T05:22:22;13.20;99.90
19180;DHT22;9722;48.754;8.868;2023-05-10T05:25:47;13.20;99.90
19180;DHT22;9722;48.754;8.868;2023-05-10T05:29:08;13.30;99.90
19180;DHT22;9722;48.754;8.868;2023-05-10T05:32:28;13.40;99.90
19180;DHT22;9722;48.754;8.868;2023-05-10T05:35:49;13.40;99.90
19180;DHT22;9722;48.754;8.868;2023-05-10T05:39:11;13.50;99.90
19180;DHT22;9722;48.754;8.868;2023-05-10T05:42:31;13.60;99.90
19180;DHT22;9722;48.754;8.868;2023-05-10T05:45:52;13.60;99.90
19180;DHT22;9722;48.754;8.868;2023-05-10T05:49:17;13.70;99.90
19180;DHT22;9722;48.754;8.868;2023-05-10T05:52:38;13.80;99.90
19180;DHT22;9722;48.754;8.868;2023-05-10T05:55:59;13.90;99.90
19180;DHT22;9722;48.754;8.868;2023-05-10T05:59:19;14.00;99.90
19180;DHT22;9722;48.754;8.868;2023-05-10T06:02:40;14.00;99.90
19180;DHT22;9722;48.754;8.868;2023-05-10T06:06:00;14.10;99.90
19180;DHT22;9722;48.754;8.868;2023-05-10T06:09:21;14.20;99.90
19180;DHT22;9722;48.754;8.868;2023-05-10T06:12:41;14.30;99.90
19180;DHT22;9722;48.754;8.868;2023-05-10T06:16:05;14.30;99.90
19180;DHT22;9722;48.754;8.868;2023-05-10T06:19:25;14.30;99.90
19180;DHT22;9722;48.754;8.868;2023-05-10T06:22:46;14.40;99.90
19180;DHT22;9722;48.754;8.868;2023-05-10T06:26:07;14.50;99.90
19180;DHT22;9722;48.754;8.868;2023-05-10T06:29:27;14.50;99.90
19180;DHT22;9722;48.754;8.868;2023-05-10T06:32:48;14.60;99.90
19180;DHT22;9722;48.754;8.868;2023-05-10T06:36:08;14.70;99.90
19180;DHT22;9722;48.754;8.868;2023-05-10T06:39:29;14.70;99.90
19180;DHT22;9722;48.754;8.868;2023-05-10T06:42:50;14.80;99.90
19180;DHT22;9722;48.754;8.868;2023-05-10T06:46:10;14.90;99.90
19180;DHT22;9722;48.754;8.868;2023-05-10T06:49:31;15.10;99.90
19180;DHT22;9722;48.754;8.868;2023-05-10T06:52:51;15.20;99.90
19180;DHT22;9722;48.754;8.868;2023-05-10T06:56:12;15.20;99.90
19180;DHT22;9722;48.754;8.868;2023-05-10T06:59:32;15.40;99.90
19180;DHT22;9722;48.754;8.868;2023-05-10T07:02:53;15.50;99.90
19180;DHT22;9722;48.754;8.868;2023-05-10T07:06:13;15.60;99.90
19180;DHT22;9722;48.754;8.868;2023-05-10T07:09:34;15.60;99.90
19180;DHT22;9722;48.754;8.868;2023-05-10T07:12:55;15.80;99.80
19180;DHT22;9722;48.754;8.868;2023-05-10T07:16:15;15.80;99.60
19180;DHT22;9722;48.754;8.868;2023-05-10T07:19:36;15.90;98.60
19180;DHT22;9722;48.754;8.868;2023-05-10T07:22:56;15.90;97.70
19180;DHT22;9722;48.754;8.868;2023-05-10T07:26:17;16.00;97.50
19180;DHT22;9722;48.754;8.868;2023-05-10T07:29:37;16.10;97.10
19180;DHT22;9722;48.754;8.868;2023-05-10T07:32:58;16.20;96.60
19180;DHT22;9722;48.754;8.868;2023-05-10T07:36:19;16.40;96.00
19180;DHT22;9722;48.754;8.868;2023-05-10T07:39:40;16.60;95.80
19180;DHT22;9722;48.754;8.868;2023-05-10T07:43:00;16.70;94.70
19180;DHT22;9722;48.754;8.868;2023-05-10T07:46:21;16.70;94.40
19180;DHT22;9722;48.754;8.868;2023-05-10T07:49:42;16.80;94.20
19180;DHT22;9722;48.754;8.868;2023-05-10T07:53:03;16.90;92.90
19180;DHT22;9722;48.754;8.868;2023-05-10T07:56:28;16.80;93.10
19180;DHT22;9722;48.754;8.868;2023-05-10T07:59:49;17.00;92.90
19180;DHT22;9722;48.754;8.868;2023-05-10T08:03:10;17.10;92.10
19180;DHT22;9722;48.754;8.868;2023-05-10T08:06:31;17.20;91.30
19180;DHT22;9722;48.754;8.868;2023-05-10T08:09:51;17.40;91.30
19180;DHT22;9722;48.754;8.868;2023-05-10T08:13:12;17.60;90.80
19180;DHT22;9722;48.754;8.868;2023-05-10T08:16:32;17.70;90.30
19180;DHT22;9722;48.754;8.868;2023-05-10T08:19:53;17.80;89.30
19180;DHT22;9722;48.754;8.868;2023-05-10T08:23:13;17.80;89.90
19180;DHT22;9722;48.754;8.868;2023-05-10T08:26:34;17.90;89.40
19180;DHT22;9722;48.754;8.868;2023-05-10T08:29:54;18.10;89.10
19180;DHT22;9722;48.754;8.868;2023-05-10T08:33:15;18.20;88.30
19180;DHT22;9722;48.754;8.868;2023-05-10T08:36:35;18.30;86.40
19180;DHT22;9722;48.754;8.868;2023-05-10T08:39:56;18.50;85.70
19180;DHT22;9722;48.754;8.868;2023-05-10T08:43:17;18.60;85.20
19180;DHT22;9722;48.754;8.868;2023-05-10T08:46:41;18.90;84.80
19180;DHT22;9722;48.754;8.868;2023-05-10T08:50:04;19.10;82.70
19180;DHT22;9722;48.754;8.868;2023-05-10T08:53:26;19.30;82.30
19180;DHT22;9722;48.754;8.868;2023-05-10T08:56:49;19.20;80.80
19180;DHT22;9722;48.754;8.868;2023-05-10T09:00:10;19.20;79.80
19180;DHT22;9722;48.754;8.868;2023-05-10T09:03:31;19.20;79.40
19180;DHT22;9722;48.754;8.868;2023-05-10T09:06:52;19.50;78.60
19180;DHT22;9722;48.754;8.868;2023-05-10T09:10:13;20.00;76.50
19180;DHT22;9722;48.754;8.868;2023-05-10T09:13:35;20.40;73.60
19180;DHT22;9722;48.754;8.868;2023-05-10T09:16:56;20.70;73.40
19180;DHT22;9722;48.754;8.868;2023-05-10T09:20:17;21.30;71.30
19180;DHT22;9722;48.754;8.868;2023-05-10T09:23:37;22.00;68.90
19180;DHT22;9722;48.754;8.868;2023-05-10T09:26:58;22.40;65.90
19180;DHT22;9722;48.754;8.868;2023-05-10T09:30:29;22.60;65.20
19180;DHT22;9722;48.754;8.868;2023-05-10T09:33:51;23.00;62.90
19180;DHT22;9722;48.754;8.868;2023-05-10T09:37:11;23.30;62.70
19180;DHT22;9722;48.754;8.868;2023-05-10T09:40:32;23.70;61.00
19180;DHT22;9722;48.754;8.868;2023-05-10T09:43:56;23.80;60.00
19180;DHT22;9722;48.754;8.868;2023-05-10T09:47:19;23.70;59.40
19180;DHT22;9722;48.754;8.868;2023-05-10T09:50:41;23.40;59.30
19180;DHT22;9722;48.754;8.868;2023-05-10T09:54:15;23.00;58.20
19180;DHT22;9722;48.754;8.868;2023-05-10T09:57:36;22.70;58.60
19180;DHT22;9722;48.754;8.868;2023-05-10T10:00:57;22.40;58.40
19180;DHT22;9722;48.754;8.868;2023-05-10T10:04:20;22.30;58.20
19180;DHT22;9722;48.754;8.868;2023-05-10T10:07:41;22.20;57.80
19180;DHT22;9722;48.754;8.868;2023-05-10T10:11:02;22.20;58.50
19180;DHT22;9722;48.754;8.868;2023-05-10T10:14:23;22.50;58.20
19180;DHT22;9722;48.754;8.868;2023-05-10T10:17:45;22.90;58.10
19180;DHT22;9722;48.754;8.868;2023-05-10T10:21:07;23.50;57.10
19180;DHT22;9722;48.754;8.868;2023-05-10T10:24:28;23.40;55.90
19180;DHT22;9722;48.754;8.868;2023-05-10T10:31:28;22.10;56.90
19180;DHT22;9722;48.754;8.868;2023-05-10T10:34:54;21.40;57.70
19180;DHT22;9722;48.754;8.868;2023-05-10T10:38:15;20.60;58.70
19180;DHT22;9722;48.754;8.868;2023-05-10T10:42:01;20.20;59.60
19180;DHT22;9722;48.754;8.868;2023-05-10T10:45:24;19.70;60.30
19180;DHT22;9722;48.754;8.868;2023-05-10T10:48:50;19.10;61.30
19180;DHT22;9722;48.754;8.868;2023-05-10T10:52:34;18.60;63.10
19180;DHT22;9722;48.754;8.868;2023-05-10T10:56:07;18.20;65.00
19180;DHT22;9722;48.754;8.868;2023-05-10T10:59:29;17.90;65.60
19180;DHT22;9722;48.754;8.868;2023-05-10T11:03:11;17.70;66.90
19180;DHT22;9722;48.754;8.868;2023-05-10T11:06:35;17.60;67.90
19180;DHT22;9722;48.754;8.868;2023-05-10T11:10:04;17.60;69.20
19180;DHT22;9722;48.754;8.868;2023-05-10T11:16:54;17.80;70.70
19180;DHT22;9722;48.754;8.868;2023-05-10T11:20:15;18.10;70.90
19180;DHT22;9722;48.754;8.868;2023-05-10T11:27:05;18.80;69.80
19180;DHT22;9722;48.754;8.868;2023-05-10T11:30:26;19.10;68.80
19180;DHT22;9722;48.754;8.868;2023-05-10T11:33:52;19.30;68.00
19180;DHT22;9722;48.754;8.868;2023-05-10T11:37:13;19.50;67.40
19180;DHT22;9722;48.754;8.868;2023-05-10T11:40:34;19.70;66.60
19180;DHT22;9722;48.754;8.868;2023-05-10T11:43:56;19.80;66.20
19180;DHT22;9722;48.754;8.868;2023-05-10T11:47:16;19.80;65.40
19180;DHT22;9722;48.754;8.868;2023-05-10T11:50:37;20.00;65.60
19180;DHT22;9722;48.754;8.868;2023-05-10T11:53:57;20.20;66.20
19180;DHT22;9722;48.754;8.868;2023-05-10T11:57:19;20.50;65.90
19180;DHT22;9722;48.754;8.868;2023-05-10T12:00:40;20.80;63.60
19180;DHT22;9722;48.754;8.868;2023-05-10T12:04:01;21.20;64.10
19180;DHT22;9722;48.754;8.868;2023-05-10T12:07:22;21.70;61.90
19180;DHT22;9722;48.754;8.868;2023-05-10T12:10:42;22.10;59.30
19180;DHT22;9722;48.754;8.868;2023-05-10T12:14:04;22.20;57.60
19180;DHT22;9722;48.754;8.868;2023-05-10T12:17:28;21.80;57.50
19180;DHT22;9722;48.754;8.868;2023-05-10T12:20:51;21.40;57.20
19180;DHT22;9722;48.754;8.868;2023-05-10T12:24:13;21.00;57.60
19180;DHT22;9722;48.754;8.868;2023-05-10T12:27:34;20.90;57.70
19180;DHT22;9722;48.754;8.868;2023-05-10T12:30:55;21.00;57.70
19180;DHT22;9722;48.754;8.868;2023-05-10T12:34:30;21.30;57.40
19180;DHT22;9722;48.754;8.868;2023-05-10T12:37:51;21.50;56.90
19180;DHT22;9722;48.754;8.868;2023-05-10T12:41:14;21.60;56.20
19180;DHT22;9722;48.754;8.868;2023-05-10T12:44:35;22.10;55.90
19180;DHT22;9722;48.754;8.868;2023-05-10T12:47:55;22.70;55.30
19180;DHT22;9722;48.754;8.868;2023-05-10T12:51:16;23.10;54.60
19180;DHT22;9722;48.754;8.868;2023-05-10T12:54:39;23.30;53.70
19180;DHT22;9722;48.754;8.868;2023-05-10T12:58:00;23.30;53.50
19180;DHT22;9722;48.754;8.868;2023-05-10T13:01:20;23.20;53.60
19180;DHT22;9722;48.754;8.868;2023-05-10T13:04:41;23.20;53.30
19180;DHT22;9722;48.754;8.868;2023-05-10T13:08:02;23.10;52.60
19180;DHT22;9722;48.754;8.868;2023-05-10T13:11:22;22.80;52.20
19180;DHT22;9722;48.754;8.868;2023-05-10T13:14:43;22.50;52.10
19180;DHT22;9722;48.754;8.868;2023-05-10T13:18:04;22.30;52.40
19180;DHT22;9722;48.754;8.868;2023-05-10T13:21:24;22.20;52.50
19180;DHT22;9722;48.754;8.868;2023-05-10T13:24:45;22.10;52.30
19180;DHT22;9722;48.754;8.868;2023-05-10T13:28:05;22.10;52.40
19180;DHT22;9722;48.754;8.868;2023-05-10T13:31:26;22.20;51.80
19180;DHT22;9722;48.754;8.868;2023-05-10T13:34:47;22.00;51.70
19180;DHT22;9722;48.754;8.868;2023-05-10T13:38:07;21.90;52.60
19180;DHT22;9722;48.754;8.868;2023-05-10T13:41:28;21.80;52.50
19180;DHT22;9722;48.754;8.868;2023-05-10T13:44:49;21.70;52.40
19180;DHT22;9722;48.754;8.868;2023-05-10T13:48:10;21.70;52.60
19180;DHT22;9722;48.754;8.868;2023-05-10T13:51:30;21.60;52.20
19180;DHT22;9722;48.754;8.868;2023-05-10T13:54:51;21.60;52.30
19180;DHT22;9722;48.754;8.868;2023-05-10T13:58:15;21.70;52.80
19180;DHT22;9722;48.754;8.868;2023-05-10T14:01:35;21.90;52.30
19180;DHT22;9722;48.754;8.868;2023-05-10T14:04:56;21.90;52.20
19180;DHT22;9722;48.754;8.868;2023-05-10T14:08:17;22.00;51.80
19180;DHT22;9722;48.754;8.868;2023-05-10T14:11:37;21.90;51.90
19180;DHT22;9722;48.754;8.868;2023-05-10T14:15:02;21.90;52.40
19180;DHT22;9722;48.754;8.868;2023-05-10T14:18:22;21.80;52.50
19180;DHT22;9722;48.754;8.868;2023-05-10T14:21:43;21.60;52.30
19180;DHT22;9722;48.754;8.868;2023-05-10T14:25:04;21.20;52.70
19180;DHT22;9722;48.754;8.868;2023-05-10T14:28:24;20.90;52.90
19180;DHT22;9722;48.754;8.868;2023-05-10T14:31:45;20.60;53.00
19180;DHT22;9722;48.754;8.868;2023-05-10T14:35:06;20.50;53.60
19180;DHT22;9722;48.754;8.868;2023-05-10T14:38:26;20.30;54.10
19180;DHT22;9722;48.754;8.868;2023-05-10T14:41:47;20.40;54.30
19180;DHT22;9722;48.754;8.868;2023-05-10T14:45:08;20.50;54.80
19180;DHT22;9722;48.754;8.868;2023-05-10T14:48:29;20.50;54.40
19180;DHT22;9722;48.754;8.868;2023-05-10T14:51:49;20.50;53.40
19180;DHT22;9722;48.754;8.868;2023-05-10T14:55:10;20.50;53.00
19180;DHT22;9722;48.754;8.868;2023-05-10T14:58:31;20.50;52.80
19180;DHT22;9722;48.754;8.868;2023-05-10T15:01:51;20.50;52.80
19180;DHT22;9722;48.754;8.868;2023-05-10T15:05:12;20.50;52.90
19180;DHT22;9722;48.754;8.868;2023-05-10T15:08:32;20.50;52.80
19180;DHT22;9722;48.754;8.868;2023-05-10T15:11:54;20.50;52.80
19180;DHT22;9722;48.754;8.868;2023-05-10T15:15:14;20.40;52.80
19180;DHT22;9722;48.754;8.868;2023-05-10T15:18:35;20.30;52.70
19180;DHT22;9722;48.754;8.868;2023-05-10T15:21:55;20.30;52.80
19180;DHT22;9722;48.754;8.868;2023-05-10T15:25:16;20.30;53.00
19180;DHT22;9722;48.754;8.868;2023-05-10T15:28:37;20.30;52.90
19180;DHT22;9722;48.754;8.868;2023-05-10T15:31:57;20.20;52.80
19180;DHT22;9722;48.754;8.868;2023-05-10T15:35:18;20.10;53.10
19180;DHT22;9722;48.754;8.868;2023-05-10T15:38:39;20.10;53.80
19180;DHT22;9722;48.754;8.868;2023-05-10T15:41:59;20.10;53.90
19180;DHT22;9722;48.754;8.868;2023-05-10T15:45:21;20.10;53.30
19180;DHT22;9722;48.754;8.868;2023-05-10T15:48:42;20.00;53.20
19180;DHT22;9722;48.754;8.868;2023-05-10T15:52:02;20.00;53.50
19180;DHT22;9722;48.754;8.868;2023-05-10T15:55:23;20.00;53.30
19180;DHT22;9722;48.754;8.868;2023-05-10T15:58:43;19.80;53.50
19180;DHT22;9722;48.754;8.868;2023-05-10T16:02:05;19.70;54.00
19180;DHT22;9722;48.754;8.868;2023-05-10T16:05:26;19.60;54.00
19180;DHT22;9722;48.754;8.868;2023-05-10T16:08:51;19.50;54.30
19180;DHT22;9722;48.754;8.868;2023-05-10T16:12:11;19.40;54.40
19180;DHT22;9722;48.754;8.868;2023-05-10T16:15:32;19.20;54.60
19180;DHT22;9722;48.754;8.868;2023-05-10T16:18:52;19.00;55.00
19180;DHT22;9722;48.754;8.868;2023-05-10T16:22:13;18.80;55.60
19180;DHT22;9722;48.754;8.868;2023-05-10T16:25:34;18.60;55.90
19180;DHT22;9722;48.754;8.868;2023-05-10T16:28:55;18.50;55.90
19180;DHT22;9722;48.754;8.868;2023-05-10T16:32:15;18.40;56.00
19180;DHT22;9722;48.754;8.868;2023-05-10T16:35:36;18.40;56.60
19180;DHT22;9722;48.754;8.868;2023-05-10T16:38:57;18.30;57.00
19180;DHT22;9722;48.754;8.868;2023-05-10T16:42:18;18.30;57.40
19180;DHT22;9722;48.754;8.868;2023-05-10T16:45:38;18.20;56.10
19180;DHT22;9722;48.754;8.868;2023-05-10T16:48:59;18.10;55.70
19180;DHT22;9722;48.754;8.868;2023-05-10T16:52:19;18.10;55.60
19180;DHT22;9722;48.754;8.868;2023-05-10T16:55:40;18.00;55.40
19180;DHT22;9722;48.754;8.868;2023-05-10T16:59:00;17.90;55.60
19180;DHT22;9722;48.754;8.868;2023-05-10T17:02:22;17.90;56.00
19180;DHT22;9722;48.754;8.868;2023-05-10T17:05:42;17.80;56.60
19180;DHT22;9722;48.754;8.868;2023-05-10T17:09:03;17.70;57.10
19180;DHT22;9722;48.754;8.868;2023-05-10T17:12:24;17.60;57.60
19180;DHT22;9722;48.754;8.868;2023-05-10T17:15:45;17.50;58.00
19180;DHT22;9722;48.754;8.868;2023-05-10T17:19:07;17.30;58.30
19180;DHT22;9722;48.754;8.868;2023-05-10T17:22:27;17.20;58.70
19180;DHT22;9722;48.754;8.868;2023-05-10T17:25:48;17.10;59.30
19180;DHT22;9722;48.754;8.868;2023-05-10T17:29:08;17.10;59.70
19180;DHT22;9722;48.754;8.868;2023-05-10T17:32:29;17.00;60.40
19180;DHT22;9722;48.754;8.868;2023-05-10T17:35:50;16.90;60.90
19180;DHT22;9722;48.754;8.868;2023-05-10T17:39:11;16.80;61.10
19180;DHT22;9722;48.754;8.868;2023-05-10T17:42:32;16.70;61.30
19180;DHT22;9722;48.754;8.868;2023-05-10T17:45:52;16.60;62.30
19180;DHT22;9722;48.754;8.868;2023-05-10T17:49:13;16.50;62.80
19180;DHT22;9722;48.754;8.868;2023-05-10T17:52:34;16.40;63.80
19180;DHT22;9722;48.754;8.868;2023-05-10T17:55:54;16.20;62.80
19180;DHT22;9722;48.754;8.868;2023-05-10T17:59:18;16.20;62.90
19180;DHT22;9722;48.754;8.868;2023-05-10T18:02:38;16.00;63.60
19180;DHT22;9722;48.754;8.868;2023-05-10T18:05:59;16.00;64.40
19180;DHT22;9722;48.754;8.868;2023-05-10T18:09:19;15.90;64.90
19180;DHT22;9722;48.754;8.868;2023-05-10T18:12:40;15.90;65.40
19180;DHT22;9722;48.754;8.868;2023-05-10T18:16:01;15.80;65.90
19180;DHT22;9722;48.754;8.868;2023-05-10T18:19:21;15.70;66.10
19180;DHT22;9722;48.754;8.868;2023-05-10T18:22:44;15.70;66.70
19180;DHT22;9722;48.754;8.868;2023-05-10T18:26:06;15.60;67.20
19180;DHT22;9722;48.754;8.868;2023-05-10T18:29:27;15.50;67.60
19180;DHT22;9722;48.754;8.868;2023-05-10T18:32:47;15.50;68.20
19180;DHT22;9722;48.754;8.868;2023-05-10T18:36:08;15.40;68.40
19180;DHT22;9722;48.754;8.868;2023-05-10T18:39:28;15.30;68.80
19180;DHT22;9722;48.754;8.868;2023-05-10T18:42:49;15.20;69.90
19180;DHT22;9722;48.754;8.868;2023-05-10T18:46:09;15.10;70.60
19180;DHT22;9722;48.754;8.868;2023-05-10T18:49:30;15.10;70.90
19180;DHT22;9722;48.754;8.868;2023-05-10T18:52:51;15.10;71.10
19180;DHT22;9722;48.754;8.868;2023-05-10T18:56:11;15.00;71.40
19180;DHT22;9722;48.754;8.868;2023-05-10T18:59:32;14.90;71.50
19180;DHT22;9722;48.754;8.868;2023-05-10T19:02:53;14.80;71.70
19180;DHT22;9722;48.754;8.868;2023-05-10T19:06:13;14.80;72.80
19180;DHT22;9722;48.754;8.868;2023-05-10T19:09:34;14.70;73.40
19180;DHT22;9722;48.754;8.868;2023-05-10T19:12:54;14.60;73.40
19180;DHT22;9722;48.754;8.868;2023-05-10T19:16:16;14.50;73.40
19180;DHT22;9722;48.754;8.868;2023-05-10T19:19:37;14.40;73.80
19180;DHT22;9722;48.754;8.868;2023-05-10T19:22:58;14.40;74.50
19180;DHT22;9722;48.754;8.868;2023-05-10T19:26:18;14.30;75.10
19180;DHT22;9722;48.754;8.868;2023-05-10T19:29:39;14.30;75.80
19180;DHT22;9722;48.754;8.868;2023-05-10T19:32:59;14.20;76.30
19180;DHT22;9722;48.754;8.868;2023-05-10T19:36:23;14.10;76.70
19180;DHT22;9722;48.754;8.868;2023-05-10T19:39:43;14.10;77.30
19180;DHT22;9722;48.754;8.868;2023-05-10T19:43:04;14.00;77.80
19180;DHT22;9722;48.754;8.868;2023-05-10T19:46:24;13.90;78.30
19180;DHT22;9722;48.754;8.868;2023-05-10T19:49:46;13.90;78.50
19180;DHT22;9722;48.754;8.868;2023-05-10T19:53:06;13.90;78.80
19180;DHT22;9722;48.754;8.868;2023-05-10T19:56:27;13.80;79.00
19180;DHT22;9722;48.754;8.868;2023-05-10T19:59:48;13.70;79.20
19180;DHT22;9722;48.754;8.868;2023-05-10T20:03:09;13.60;79.40
19180;DHT22;9722;48.754;8.868;2023-05-10T20:06:30;13.60;79.80
19180;DHT22;9722;48.754;8.868;2023-05-10T20:09:51;13.50;80.00
19180;DHT22;9722;48.754;8.868;2023-05-10T20:13:11;13.40;80.30
19180;DHT22;9722;48.754;8.868;2023-05-10T20:16:32;13.40;80.60
19180;DHT22;9722;48.754;8.868;2023-05-10T20:19:52;13.30;80.90
19180;DHT22;9722;48.754;8.868;2023-05-10T20:23:13;13.30;81.40
19180;DHT22;9722;48.754;8.868;2023-05-10T20:26:34;13.20;81.70
19180;DHT22;9722;48.754;8.868;2023-05-10T20:29:54;13.20;82.20
19180;DHT22;9722;48.754;8.868;2023-05-10T20:33:15;13.10;82.20
19180;DHT22;9722;48.754;8.868;2023-05-10T20:36:36;13.10;82.40
19180;DHT22;9722;48.754;8.868;2023-05-10T20:39:56;13.10;82.50
19180;DHT22;9722;48.754;8.868;2023-05-10T20:43:17;13.10;82.80
19180;DHT22;9722;48.754;8.868;2023-05-10T20:46:38;13.00;83.40
19180;DHT22;9722;48.754;8.868;2023-05-10T20:49:58;12.90;83.60
19180;DHT22;9722;48.754;8.868;2023-05-10T20:53:19;12.80;83.90
19180;DHT22;9722;48.754;8.868;2023-05-10T20:56:39;12.80;84.30
19180;DHT22;9722;48.754;8.868;2023-05-10T21:00:00;12.60;85.00
19180;DHT22;9722;48.754;8.868;2023-05-10T21:03:21;12.60;85.80
19180;DHT22;9722;48.754;8.868;2023-05-10T21:06:42;12.50;86.10
19180;DHT22;9722;48.754;8.868;2023-05-10T21:10:04;12.40;86.90
19180;DHT22;9722;48.754;8.868;2023-05-10T21:13:25;12.30;87.50
19180;DHT22;9722;48.754;8.868;2023-05-10T21:16:45;12.20;87.70
19180;DHT22;9722;48.754;8.868;2023-05-10T21:20:06;12.10;88.20
19180;DHT22;9722;48.754;8.868;2023-05-10T21:23:27;12.10;88.40
19180;DHT22;9722;48.754;8.868;2023-05-10T21:26:47;12.00;88.70
19180;DHT22;9722;48.754;8.868;2023-05-10T21:30:08;12.00;89.10
19180;DHT22;9722;48.754;8.868;2023-05-10T21:33:29;12.00;89.50
19180;DHT22;9722;48.754;8.868;2023-05-10T21:36:50;12.00;90.00
19180;DHT22;9722;48.754;8.868;2023-05-10T21:40:11;11.90;90.10
19180;DHT22;9722;48.754;8.868;2023-05-10T21:43:32;11.90;90.30
19180;DHT22;9722;48.754;8.868;2023-05-10T21:46:52;11.80;90.30
19180;DHT22;9722;48.754;8.868;2023-05-10T21:50:13;11.80;90.50
19180;DHT22;9722;48.754;8.868;2023-05-10T21:53:35;11.80;90.60
19180;DHT22;9722;48.754;8.868;2023-05-10T21:56:56;11.80;90.80